sensor_id;sensor_type;location;lat;lon;timestamp;temperature;humidity
65692;DHT22;52411;52.716;6.696;2023-01-20T00:01:11;0.10;99.90
65692;DHT22;52411;52.716;6.696;2023-01-20T00:03:40;0.10;99.90
65692;DHT22;52411;52.716;6.696;2023-01-20T00:06:06;0.00;99.90
65692;DHT22;52411;52.716;6.696;2023-01-20T00:08:32;0.00;99.90
65692;DHT22;52411;52.716;6.696;2023-01-20T00:10:58;0.00;99.90
65692;DHT22;52411;52.716;6.696;2023-01-20T00:13:23;0.10;99.90
65692;DHT22;52411;52.716;6.696;2023-01-20T00:15:49;0.10;99.90
65692;DHT22;52411;52.716;6.696;2023-01-20T00:18:15;0.20;99.90
65692;DHT22;52411;52.716;6.696;2023-01-20T00:20:41;0.30;99.90
65692;DHT22;52411;52.716;6.696;2023-01-20T00:23:06;0.40;99.90
65692;DHT22;52411;52.716;6.696;2023-01-20T00:25:34;0.40;99.90
65692;DHT22;52411;52.716;6.696;2023-01-20T00:28:00;0.60;99.90
65692;DHT22;52411;52.716;6.696;2023-01-20T00:30:26;0.70;99.90
65692;DHT22;52411;52.716;6.696;2023-01-20T00:32:51;0.70;99.90
65692;DHT22;52411;52.716;6.696;2023-01-20T00:35:17;0.80;99.90
65692;DHT22;52411;52.716;6.696;2023-01-20T00:37:43;0.80;99.90
65692;DHT22;52411;52.716;6.696;2023-01-20T00:40:09;0.80;99.90
65692;DHT22;52411;52.716;6.696;2023-01-20T00:42:34;0.90;99.90
65692;DHT22;52411;52.716;6.696;2023-01-20T00:45:00;0.90;99.90
65692;DHT22;52411;52.716;6.696;2023-01-20T00:47:25;0.90;99.90
65692;DHT22;52411;52.716;6.696;2023-01-20T00:49:51;1.00;99.90
65692;DHT22;52411;52.716;6.696;2023-01-20T00:52:17;1.00;99.90
65692;DHT22;52411;52.716;6.696;2023-01-20T00:54:45;1.00;99.90
65692;DHT22;52411;52.716;6.696;2023-01-20T00:57:11;1.10;99.90
65692;DHT22;52411;52.716;6.696;2023-01-20T00:59:37;1.10;99.90
65692;DHT22;52411;52.716;6.696;2023-01-20T01:02:02;1.10;99.90
65692;DHT22;52411;52.716;6.696;2023-01-20T01:04:28;1.10;99.90
65692;DHT22;52411;52.716;6.696;2023-01-20T01:06:54;1.10;99.90
65692;DHT22;52411;52.716;6.696;2023-01-20T01:09:19;1.10;99.90
65692;DHT22;52411;52.716;6.696;2023-01-20T01:11:47;1.20;99.90
65692;DHT22;52411;52.716;6.696;2023-01-20T01:14:12;1.20;99.90
65692;DHT22;52411;52.716;6.696;2023-01-20T01:16:38;1.20;99.90
65692;DHT22;52411;52.716;6.696;2023-01-20T01:19:03;1.20;99.90
65692;DHT22;52411;52.716;6.696;2023-01-20T01:21:29;1.20;99.90
65692;DHT22;52411;52.716;6.696;2023-01-20T01:23:55;1.20;99.90
65692;DHT22;52411;52.716;6.696;2023-01-20T01:26:21;1.20;99.90
65692;DHT22;52411;52.716;6.696;2023-01-20T01:28:47;1.20;99.90
65692;DHT22;52411;52.716;6.696;2023-01-20T01:31:14;1.20;99.90
65692;DHT22;52411;52.716;6.696;2023-01-20T01:33:40;1.20;99.90
65692;DHT22;52411;52.716;6.696;2023-01-20T01:36:06;1.10;99.90
65692;DHT22;52411;52.716;6.696;2023-01-20T01:38:33;1.10;99.90
65692;DHT22;52411;52.716;6.696;2023-01-20T01:40:59;1.10;99.90
65692;DHT22;52411;52.716;6.696;2023-01-20T01:43:31;1.10;99.90
65692;DHT22;52411;52.716;6.696;2023-01-20T01:45:57;1.10;99.90
65692;DHT22;52411;52.716;6.696;2023-01-20T01:48:25;1.10;99.90
65692;DHT22;52411;52.716;6.696;2023-01-20T01:51:02;1.10;99.90
65692;DHT22;52411;52.716;6.696;2023-01-20T01:53:30;1.10;99.90
65692;DHT22;52411;52.716;6.696;2023-01-20T01:56:00;1.10;99.90
65692;DHT22;52411;52.716;6.696;2023-01-20T01:58:30;1.10;99.90
65692;DHT22;52411;52.716;6.696;2023-01-20T02:00:57;1.10;99.90
65692;DHT22;52411;52.716;6.696;2023-01-20T02:03:22;1.00;99.90
65692;DHT22;52411;52.716;6.696;2023-01-20T02:05:51;1.10;99.90
65692;DHT22;52411;52.716;6.696;2023-01-20T02:08:18;1.10;99.90
65692;DHT22;52411;52.716;6.696;2023-01-20T02:10:44;1.10;99.90
65692;DHT22;52411;52.716;6.696;2023-01-20T02:13:10;1.10;99.90
65692;DHT22;52411;52.716;6.696;2023-01-20T02:15:49;1.10;99.90
65692;DHT22;52411;52.716;6.696;2023-01-20T02:18:38;1.10;99.90
65692;DHT22;52411;52.716;6.696;2023-01-20T02:32:13;1.10;99.90
65692;DHT22;52411;52.716;6.696;2023-01-20T02:34:57;1.10;99.90
65692;DHT22;52411;52.716;6.696;2023-01-20T02:37:46;1.10;99.90
65692;DHT22;52411;52.716;6.696;2023-01-20T02:40:42;1.10;99.90
65692;DHT22;52411;52.716;6.696;2023-01-20T02:43:49;1.10;99.90
65692;DHT22;52411;52.716;6.696;2023-01-20T02:46:13;1.10;99.90
65692;DHT22;52411;52.716;6.696;2023-01-20T02:48:46;1.10;99.90
65692;DHT22;52411;52.716;6.696;2023-01-20T02:51:29;1.10;99.90
65692;DHT22;52411;52.716;6.696;2023-01-20T02:54:05;1.10;99.90
65692;DHT22;52411;52.716;6.696;2023-01-20T02:56:33;1.10;99.90
65692;DHT22;52411;52.716;6.696;2023-01-20T02:59:03;1.10;99.90
65692;DHT22;52411;52.716;6.696;2023-01-20T03:01:52;1.10;99.90
65692;DHT22;52411;52.716;6.696;2023-01-20T03:04:24;1.10;99.90
65692;DHT22;52411;52.716;6.696;2023-01-20T03:06:54;1.10;99.90
65692;DHT22;52411;52.716;6.696;2023-01-20T03:09:24;1.10;99.90
65692;DHT22;52411;52.716;6.696;2023-01-20T03:12:00;1.10;99.90
65692;DHT22;52411;52.716;6.696;2023-01-20T03:14:29;1.10;99.90
65692;DHT22;52411;52.716;6.696;2023-01-20T03:16:55;1.00;99.90
65692;DHT22;52411;52.716;6.696;2023-01-20T03:19:20;1.00;99.90
65692;DHT22;52411;52.716;6.696;2023-01-20T03:21:47;1.00;99.90
65692;DHT22;52411;52.716;6.696;2023-01-20T03:24:13;1.10;99.90
65692;DHT22;52411;52.716;6.696;2023-01-20T03:26:38;1.10;99.90
65692;DHT22;52411;52.716;6.696;2023-01-20T03:29:06;1.10;99.90
65692;DHT22;52411;52.716;6.696;2023-01-20T03:31:37;1.00;99.90
65692;DHT22;52411;52.716;6.696;2023-01-20T03:34:04;1.00;99.90
65692;DHT22;52411;52.716;6.696;2023-01-20T03:36:31;1.00;99.90
65692;DHT22;52411;52.716;6.696;2023-01-20T03:38:58;1.10;99.90
65692;DHT22;52411;52.716;6.696;2023-01-20T03:49:40;1.10;99.90
65692;DHT22;52411;52.716;6.696;2023-01-20T03:52:16;1.10;99.90
65692;DHT22;52411;52.716;6.696;2023-01-20T03:55:13;1.10;99.90
65692;DHT22;52411;52.716;6.696;2023-01-20T03:57:40;1.10;99.90
65692;DHT22;52411;52.716;6.696;2023-01-20T04:00:08;1.10;99.90
65692;DHT22;52411;52.716;6.696;2023-01-20T04:02:36;1.10;99.90
65692;DHT22;52411;52.716;6.696;2023-01-20T04:05:04;1.10;99.90
65692;DHT22;52411;52.716;6.696;2023-01-20T04:07:31;1.10;99.90
65692;DHT22;52411;52.716;6.696;2023-01-20T04:10:02;1.10;99.90
65692;DHT22;52411;52.716;6.696;2023-01-20T04:12:29;1.10;99.90
65692;DHT22;52411;52.716;6.696;2023-01-20T04:14:54;1.10;99.90
65692;DHT22;52411;52.716;6.696;2023-01-20T04:17:20;1.10;99.90
65692;DHT22;52411;52.716;6.696;2023-01-20T04:19:50;1.10;99.90
65692;DHT22;52411;52.716;6.696;2023-01-20T04:22:26;1.10;99.90
65692;DHT22;52411;52.716;6.696;2023-01-20T04:25:02;1.10;99.90
65692;DHT22;52411;52.716;6.696;2023-01-20T04:27:30;1.10;99.90
65692;DHT22;52411;52.716;6.696;2023-01-20T04:29:56;1.10;99.90
65692;DHT22;52411;52.716;6.696;2023-01-20T04:32:21;1.10;99.90
65692;DHT22;52411;52.716;6.696;2023-01-20T04:34:49;1.20;99.90
65692;DHT22;52411;52.716;6.696;2023-01-20T04:37:16;1.20;99.90
65692;DHT22;52411;52.716;6.696;2023-01-20T04:39:41;1.20;99.90
65692;DHT22;52411;52.716;6.696;2023-01-20T04:42:09;1.20;99.90
65692;DHT22;52411;52.716;6.696;2023-01-20T04:44:34;1.20;99.90
65692;DHT22;52411;52.716;6.696;2023-01-20T04:47:00;1.20;99.90
65692;DHT22;52411;52.716;6.696;2023-01-20T04:49:25;1.20;99.90
65692;DHT22;52411;52.716;6.696;2023-01-20T04:51:51;1.20;99.90
65692;DHT22;52411;52.716;6.696;2023-01-20T04:54:17;1.20;99.90
65692;DHT22;52411;52.716;6.696;2023-01-20T04:56:42;1.20;99.90
65692;DHT22;52411;52.716;6.696;2023-01-20T04:59:08;1.20;99.90
65692;DHT22;52411;52.716;6.696;2023-01-20T05:01:34;1.20;99.90
65692;DHT22;52411;52.716;6.696;2023-01-20T05:03:59;1.20;99.90
65692;DHT22;52411;52.716;6.696;2023-01-20T05:06:25;1.20;99.90
65692;DHT22;52411;52.716;6.696;2023-01-20T05:08:51;1.20;99.90
65692;DHT22;52411;52.716;6.696;2023-01-20T05:11:16;1.20;99.90
65692;DHT22;52411;52.716;6.696;2023-01-20T05:13:42;1.20;99.90
65692;DHT22;52411;52.716;6.696;2023-01-20T05:16:09;1.20;99.90
65692;DHT22;52411;52.716;6.696;2023-01-20T05:18:35;1.20;99.90
65692;DHT22;52411;52.716;6.696;2023-01-20T05:21:04;1.20;99.90
65692;DHT22;52411;52.716;6.696;2023-01-20T05:23:30;1.20;99.90
65692;DHT22;52411;52.716;6.696;2023-01-20T05:25:55;1.20;99.90
65692;DHT22;52411;52.716;6.696;2023-01-20T05:28:21;1.20;99.90
65692;DHT22;52411;52.716;6.696;2023-01-20T05:30:47;1.20;99.90
65692;DHT22;52411;52.716;6.696;2023-01-20T05:33:14;1.20;99.90
65692;DHT22;52411;52.716;6.696;2023-01-20T05:35:39;1.20;99.90
65692;DHT22;52411;52.716;6.696;2023-01-20T05:38:05;1.20;99.90
65692;DHT22;52411;52.716;6.696;2023-01-20T05:40:31;1.20;99.90
65692;DHT22;52411;52.716;6.696;2023-01-20T05:43:01;1.20;99.90
65692;DHT22;52411;52.716;6.696;2023-01-20T05:45:27;1.20;99.90
65692;DHT22;52411;52.716;6.696;2023-01-20T05:47:56;1.20;99.90
65692;DHT22;52411;52.716;6.696;2023-01-20T05:50:24;1.20;99.90
65692;DHT22;52411;52.716;6.696;2023-01-20T05:52:50;1.20;99.90
65692;DHT22;52411;52.716;6.696;2023-01-20T05:55:15;1.20;99.90
65692;DHT22;52411;52.716;6.696;2023-01-20T05:57:41;1.20;99.90
65692;DHT22;52411;52.716;6.696;2023-01-20T06:00:07;1.20;99.90
65692;DHT22;52411;52.716;6.696;2023-01-20T06:02:33;1.20;99.90
65692;DHT22;52411;52.716;6.696;2023-01-20T06:04:59;1.20;99.90
65692;DHT22;52411;52.716;6.696;2023-01-20T06:07:27;1.20;99.90
65692;DHT22;52411;52.716;6.696;2023-01-20T06:09:53;1.30;99.90
65692;DHT22;52411;52.716;6.696;2023-01-20T06:12:19;1.30;99.90
65692;DHT22;52411;52.716;6.696;2023-01-20T06:14:44;1.30;99.90
65692;DHT22;52411;52.716;6.696;2023-01-20T06:17:10;1.30;99.90
65692;DHT22;52411;52.716;6.696;2023-01-20T06:19:36;1.30;99.90
65692;DHT22;52411;52.716;6.696;2023-01-20T06:22:02;1.20;99.90
65692;DHT22;52411;52.716;6.696;2023-01-20T06:24:27;1.30;99.90
65692;DHT22;52411;52.716;6.696;2023-01-20T06:26:53;1.30;99.90
65692;DHT22;52411;52.716;6.696;2023-01-20T06:29:19;1.30;99.90
65692;DHT22;52411;52.716;6.696;2023-01-20T06:31:45;1.30;99.90
65692;DHT22;52411;52.716;6.696;2023-01-20T06:34:11;1.40;99.90
65692;DHT22;52411;52.716;6.696;2023-01-20T06:36:37;1.40;99.90
65692;DHT22;52411;52.716;6.696;2023-01-20T06:39:02;1.40;99.90
65692;DHT22;52411;52.716;6.696;2023-01-20T06:41:28;1.50;99.90
65692;DHT22;52411;52.716;6.696;2023-01-20T06:43:54;1.40;99.90
65692;DHT22;52411;52.716;6.696;2023-01-20T06:46:19;1.40;99.90
65692;DHT22;52411;52.716;6.696;2023-01-20T06:48:46;1.40;99.90
65692;DHT22;52411;52.716;6.696;2023-01-20T06:51:15;1.50;99.90
65692;DHT22;52411;52.716;6.696;2023-01-20T06:53:42;1.50;99.90
65692;DHT22;52411;52.716;6.696;2023-01-20T06:56:10;1.50;99.90
65692;DHT22;52411;52.716;6.696;2023-01-20T06:58:36;1.50;99.90
65692;DHT22;52411;52.716;6.696;2023-01-20T07:01:17;1.50;99.90
65692;DHT22;52411;52.716;6.696;2023-01-20T07:03:44;1.40;99.90
65692;DHT22;52411;52.716;6.696;2023-01-20T07:06:14;1.50;99.90
65692;DHT22;52411;52.716;6.696;2023-01-20T07:08:41;1.50;99.90
65692;DHT22;52411;52.716;6.696;2023-01-20T07:11:07;1.50;99.90
65692;DHT22;52411;52.716;6.696;2023-01-20T07:13:33;1.50;99.90
65692;DHT22;52411;52.716;6.696;2023-01-20T07:15:58;1.50;99.90
65692;DHT22;52411;52.716;6.696;2023-01-20T07:18:24;1.40;99.90
65692;DHT22;52411;52.716;6.696;2023-01-20T07:20:53;1.50;99.90
65692;DHT22;52411;52.716;6.696;2023-01-20T07:23:20;1.50;99.90
65692;DHT22;52411;52.716;6.696;2023-01-20T07:25:45;1.60;99.90
65692;DHT22;52411;52.716;6.696;2023-01-20T07:28:11;1.50;99.90
65692;DHT22;52411;52.716;6.696;2023-01-20T07:30:36;1.60;99.90
65692;DHT22;52411;52.716;6.696;2023-01-20T07:33:02;1.60;99.90
65692;DHT22;52411;52.716;6.696;2023-01-20T07:35:30;1.50;99.90
65692;DHT22;52411;52.716;6.696;2023-01-20T07:37:56;1.50;99.90
65692;DHT22;52411;52.716;6.696;2023-01-20T07:40:21;1.60;99.90
65692;DHT22;52411;52.716;6.696;2023-01-20T07:42:47;1.60;99.90
65692;DHT22;52411;52.716;6.696;2023-01-20T07:45:13;1.60;99.90
65692;DHT22;52411;52.716;6.696;2023-01-20T07:47:38;1.60;99.90
65692;DHT22;52411;52.716;6.696;2023-01-20T07:50:04;1.60;99.90
65692;DHT22;52411;52.716;6.696;2023-01-20T07:52:30;1.60;99.90
65692;DHT22;52411;52.716;6.696;2023-01-20T07:54:55;1.60;99.90
65692;DHT22;52411;52.716;6.696;2023-01-20T07:57:21;1.60;99.90
65692;DHT22;52411;52.716;6.696;2023-01-20T07:59:46;1.60;99.90
65692;DHT22;52411;52.716;6.696;2023-01-20T08:02:12;1.70;99.90
65692;DHT22;52411;52.716;6.696;2023-01-20T08:04:38;1.70;99.90
65692;DHT22;52411;52.716;6.696;2023-01-20T08:07:03;1.60;99.90
65692;DHT22;52411;52.716;6.696;2023-01-20T08:09:29;1.60;99.90
65692;DHT22;52411;52.716;6.696;2023-01-20T08:11:54;1.60;99.90
65692;DHT22;52411;52.716;6.696;2023-01-20T08:14:20;1.70;99.90
65692;DHT22;52411;52.716;6.696;2023-01-20T08:16:45;1.60;99.90
65692;DHT22;52411;52.716;6.696;2023-01-20T08:19:11;1.70;99.90
65692;DHT22;52411;52.716;6.696;2023-01-20T08:21:37;1.70;99.90
65692;DHT22;52411;52.716;6.696;2023-01-20T08:24:03;1.60;99.90
65692;DHT22;52411;52.716;6.696;2023-01-20T08:26:30;1.60;99.90
65692;DHT22;52411;52.716;6.696;2023-01-20T08:29:02;1.70;99.90
65692;DHT22;52411;52.716;6.696;2023-01-20T08:31:28;1.60;99.90
65692;DHT22;52411;52.716;6.696;2023-01-20T08:33:55;1.60;99.90
65692;DHT22;52411;52.716;6.696;2023-01-20T08:36:23;1.60;99.90
65692;DHT22;52411;52.716;6.696;2023-01-20T08:38:50;1.60;99.90
65692;DHT22;52411;52.716;6.696;2023-01-20T08:41:21;1.60;99.90
65692;DHT22;52411;52.716;6.696;2023-01-20T08:43:47;1.60;99.90
65692;DHT22;52411;52.716;6.696;2023-01-20T08:46:14;1.60;99.90
65692;DHT22;52411;52.716;6.696;2023-01-20T08:48:42;1.70;99.90
65692;DHT22;52411;52.716;6.696;2023-01-20T08:51:13;1.70;99.90
65692;DHT22;52411;52.716;6.696;2023-01-20T08:53:40;1.70;99.90
65692;DHT22;52411;52.716;6.696;2023-01-20T08:56:07;1.70;99.90
65692;DHT22;52411;52.716;6.696;2023-01-20T08:58:32;1.60;99.90
65692;DHT22;52411;52.716;6.696;2023-01-20T09:00:58;1.60;99.90
65692;DHT22;52411;52.716;6.696;2023-01-20T09:03:25;1.60;99.90
65692;DHT22;52411;52.716;6.696;2023-01-20T09:05:51;1.60;99.90
65692;DHT22;52411;52.716;6.696;2023-01-20T09:08:17;1.60;99.90
65692;DHT22;52411;52.716;6.696;2023-01-20T09:10:44;1.60;99.90
65692;DHT22;52411;52.716;6.696;2023-01-20T09:13:10;1.70;99.90
65692;DHT22;52411;52.716;6.696;2023-01-20T09:15:35;1.70;99.90
65692;DHT22;52411;52.716;6.696;2023-01-20T09:18:01;1.60;99.90
65692;DHT22;52411;52.716;6.696;2023-01-20T09:20:27;1.60;99.90
65692;DHT22;52411;52.716;6.696;2023-01-20T09:22:54;1.60;99.90
65692;DHT22;52411;52.716;6.696;2023-01-20T09:25:20;1.60;99.90
65692;DHT22;52411;52.716;6.696;2023-01-20T09:27:46;1.50;99.90
65692;DHT22;52411;52.716;6.696;2023-01-20T09:30:11;1.60;99.90
65692;DHT22;52411;52.716;6.696;2023-01-20T09:32:37;1.70;99.90
65692;DHT22;52411;52.716;6.696;2023-01-20T09:35:03;1.80;99.90
65692;DHT22;52411;52.716;6.696;2023-01-20T09:37:29;1.80;99.90
65692;DHT22;52411;52.716;6.696;2023-01-20T09:40:31;1.90;99.90
65692;DHT22;52411;52.716;6.696;2023-01-20T09:44:21;1.90;99.90
65692;DHT22;52411;52.716;6.696;2023-01-20T09:49:49;2.00;99.90
65692;DHT22;52411;52.716;6.696;2023-01-20T09:52:37;2.00;99.90
65692;DHT22;52411;52.716;6.696;2023-01-20T09:55:53;2.10;99.90
65692;DHT22;52411;52.716;6.696;2023-01-20T09:58:49;2.10;99.90
65692;DHT22;52411;52.716;6.696;2023-01-20T10:04:14;2.20;99.90
65692;DHT22;52411;52.716;6.696;2023-01-20T10:06:48;2.20;99.90
65692;DHT22;52411;52.716;6.696;2023-01-20T10:09:30;2.20;99.90
65692;DHT22;52411;52.716;6.696;2023-01-20T10:12:09;2.20;99.90
65692;DHT22;52411;52.716;6.696;2023-01-20T10:14:42;2.20;99.90
65692;DHT22;52411;52.716;6.696;2023-01-20T10:17:32;2.20;99.90
65692;DHT22;52411;52.716;6.696;2023-01-20T10:22:55;2.30;99.90
65692;DHT22;52411;52.716;6.696;2023-01-20T10:25:40;2.30;99.90
65692;DHT22;52411;52.716;6.696;2023-01-20T10:28:14;2.30;99.90
65692;DHT22;52411;52.716;6.696;2023-01-20T10:30:41;2.30;99.90
65692;DHT22;52411;52.716;6.696;2023-01-20T10:33:39;2.30;99.90
65692;DHT22;52411;52.716;6.696;2023-01-20T10:36:12;2.30;99.90
65692;DHT22;52411;52.716;6.696;2023-01-20T10:39:01;2.20;99.90
65692;DHT22;52411;52.716;6.696;2023-01-20T10:43:57;2.20;99.90
65692;DHT22;52411;52.716;6.696;2023-01-20T10:55:24;2.40;99.90
65692;DHT22;52411;52.716;6.696;2023-01-20T10:57:53;2.40;99.90
65692;DHT22;52411;52.716;6.696;2023-01-20T11:00:26;2.40;99.90
65692;DHT22;52411;52.716;6.696;2023-01-20T11:02:55;2.40;99.90
65692;DHT22;52411;52.716;6.696;2023-01-20T11:05:29;2.40;99.90
65692;DHT22;52411;52.716;6.696;2023-01-20T11:07:57;2.50;99.90
65692;DHT22;52411;52.716;6.696;2023-01-20T11:10:26;2.50;99.90
65692;DHT22;52411;52.716;6.696;2023-01-20T11:13:00;2.50;99.90
65692;DHT22;52411;52.716;6.696;2023-01-20T11:15:46;2.60;99.90
65692;DHT22;52411;52.716;6.696;2023-01-20T11:20:44;2.50;99.90
65692;DHT22;52411;52.716;6.696;2023-01-20T11:23:31;2.50;99.90
65692;DHT22;52411;52.716;6.696;2023-01-20T11:26:04;2.50;99.90
65692;DHT22;52411;52.716;6.696;2023-01-20T11:31:18;2.60;99.90
65692;DHT22;52411;52.716;6.696;2023-01-20T11:33:56;2.50;99.90
65692;DHT22;52411;52.716;6.696;2023-01-20T11:36:21;2.60;99.90
65692;DHT22;52411;52.716;6.696;2023-01-20T11:38:53;2.60;99.90
65692;DHT22;52411;52.716;6.696;2023-01-20T11:43:48;2.60;99.90
65692;DHT22;52411;52.716;6.696;2023-01-20T11:48:44;2.60;99.90
65692;DHT22;52411;52.716;6.696;2023-01-20T11:51:28;2.60;99.90
65692;DHT22;52411;52.716;6.696;2023-01-20T11:54:06;2.60;99.90
65692;DHT22;52411;52.716;6.696;2023-01-20T11:56:41;2.50;99.90
65692;DHT22;52411;52.716;6.696;2023-01-20T11:59:24;2.50;99.90
65692;DHT22;52411;52.716;6.696;2023-01-20T12:04:49;2.60;99.90
65692;DHT22;52411;52.716;6.696;2023-01-20T12:07:41;2.70;99.90
65692;DHT22;52411;52.716;6.696;2023-01-20T12:10:29;2.70;99.90
65692;DHT22;52411;52.716;6.696;2023-01-20T12:15:33;2.70;99.90
65692;DHT22;52411;52.716;6.696;2023-01-20T12:20:45;2.80;99.90
65692;DHT22;52411;52.716;6.696;2023-01-20T12:31:02;2.80;99.90
65692;DHT22;52411;52.716;6.696;2023-01-20T12:33:37;2.80;99.90
65692;DHT22;52411;52.716;6.696;2023-01-20T12:44:28;2.70;99.90
65692;DHT22;52411;52.716;6.696;2023-01-20T12:59:00;2.80;99.90
65692;DHT22;52411;52.716;6.696;2023-01-20T13:01:41;2.80;99.90
65692;DHT22;52411;52.716;6.696;2023-01-20T13:07:28;2.80;99.90
65692;DHT22;52411;52.716;6.696;2023-01-20T13:10:35;2.80;99.90
65692;DHT22;52411;52.716;6.696;2023-01-20T13:13:13;2.80;99.90
65692;DHT22;52411;52.716;6.696;2023-01-20T13:19:05;2.80;99.90
65692;DHT22;52411;52.716;6.696;2023-01-20T13:21:19;2.80;99.90
65692;DHT22;52411;52.716;6.696;2023-01-20T13:23:47;2.90;99.90
65692;DHT22;52411;52.716;6.696;2023-01-20T13:26:14;2.90;99.90
65692;DHT22;52411;52.716;6.696;2023-01-20T13:28:50;3.10;99.90
65692;DHT22;52411;52.716;6.696;2023-01-20T13:47:57;2.80;99.90
65692;DHT22;52411;52.716;6.696;2023-01-20T13:50:33;2.80;99.90
65692;DHT22;52411;52.716;6.696;2023-01-20T13:58:31;2.80;99.90
65692;DHT22;52411;52.716;6.696;2023-01-20T14:01:01;2.90;99.90
65692;DHT22;52411;52.716;6.696;2023-01-20T14:03:32;2.90;99.90
65692;DHT22;52411;52.716;6.696;2023-01-20T14:06:04;2.90;99.90
65692;DHT22;52411;52.716;6.696;2023-01-20T14:08:44;2.80;99.90
65692;DHT22;52411;52.716;6.696;2023-01-20T14:11:12;2.80;99.90
65692;DHT22;52411;52.716;6.696;2023-01-20T14:13:39;2.80;99.90
65692;DHT22;52411;52.716;6.696;2023-01-20T14:16:14;2.80;99.90
65692;DHT22;52411;52.716;6.696;2023-01-20T14:18:42;2.80;99.90
65692;DHT22;52411;52.716;6.696;2023-01-20T14:21:20;2.80;99.90
65692;DHT22;52411;52.716;6.696;2023-01-20T14:23:46;2.80;99.90
65692;DHT22;52411;52.716;6.696;2023-01-20T14:26:19;2.80;99.90
65692;DHT22;52411;52.716;6.696;2023-01-20T14:28:53;2.80;99.90
65692;DHT22;52411;52.716;6.696;2023-01-20T14:31:29;2.80;99.90
65692;DHT22;52411;52.716;6.696;2023-01-20T14:34:21;2.70;99.90
65692;DHT22;52411;52.716;6.696;2023-01-20T14:36:47;2.70;99.90
65692;DHT22;52411;52.716;6.696;2023-01-20T14:39:22;2.70;99.90
65692;DHT22;52411;52.716;6.696;2023-01-20T14:41:57;2.70;99.90
65692;DHT22;52411;52.716;6.696;2023-01-20T14:44:25;2.70;99.90
65692;DHT22;52411;52.716;6.696;2023-01-20T14:46:52;2.70;99.90
65692;DHT22;52411;52.716;6.696;2023-01-20T14:49:20;2.70;99.90
65692;DHT22;52411;52.716;6.696;2023-01-20T14:51:48;2.70;99.90
65692;DHT22;52411;52.716;6.696;2023-01-20T14:54:43;2.70;99.90
65692;DHT22;52411;52.716;6.696;2023-01-20T14:59:44;2.70;99.90
65692;DHT22;52411;52.716;6.696;2023-01-20T15:02:32;2.70;99.90
65692;DHT22;52411;52.716;6.696;2023-01-20T15:04:59;2.60;99.90
65692;DHT22;52411;52.716;6.696;2023-01-20T15:07:25;2.60;99.90
65692;DHT22;52411;52.716;6.696;2023-01-20T15:10:05;2.70;99.90
65692;DHT22;52411;52.716;6.696;2023-01-20T15:12:57;2.60;99.90
65692;DHT22;52411;52.716;6.696;2023-01-20T15:15:31;2.60;99.90
65692;DHT22;52411;52.716;6.696;2023-01-20T15:20:38;2.60;99.90
65692;DHT22;52411;52.716;6.696;2023-01-20T15:23:34;2.60;99.90
65692;DHT22;52411;52.716;6.696;2023-01-20T15:26:27;2.60;99.90
65692;DHT22;52411;52.716;6.696;2023-01-20T15:28:54;2.60;99.90
65692;DHT22;52411;52.716;6.696;2023-01-20T15:31:20;2.60;99.90
65692;DHT22;52411;52.716;6.696;2023-01-20T15:33:46;2.60;99.90
65692;DHT22;52411;52.716;6.696;2023-01-20T15:38:41;2.60;99.90
65692;DHT22;52411;52.716;6.696;2023-01-20T15:41:09;2.60;99.90
65692;DHT22;52411;52.716;6.696;2023-01-20T15:43:35;2.60;99.90
65692;DHT22;52411;52.716;6.696;2023-01-20T15:46:01;2.70;99.90
65692;DHT22;52411;52.716;6.696;2023-01-20T15:48:27;2.70;99.90
65692;DHT22;52411;52.716;6.696;2023-01-20T15:50:52;2.70;99.90
65692;DHT22;52411;52.716;6.696;2023-01-20T15:53:18;2.70;99.90
65692;DHT22;52411;52.716;6.696;2023-01-20T15:55:49;2.70;99.90
65692;DHT22;52411;52.716;6.696;2023-01-20T15:58:41;2.70;99.90
65692;DHT22;52411;52.716;6.696;2023-01-20T16:01:07;2.70;99.90
65692;DHT22;52411;52.716;6.696;2023-01-20T16:03:34;2.60;99.90
65692;DHT22;52411;52.716;6.696;2023-01-20T16:05:59;2.70;99.90
65692;DHT22;52411;52.716;6.696;2023-01-20T16:08:33;2.70;99.90
65692;DHT22;52411;52.716;6.696;2023-01-20T16:10:59;2.70;99.90
65692;DHT22;52411;52.716;6.696;2023-01-20T16:13:25;2.70;99.90
65692;DHT22;52411;52.716;6.696;2023-01-20T16:15:51;2.70;99.90
65692;DHT22;52411;52.716;6.696;2023-01-20T16:18:17;2.70;99.90
65692;DHT22;52411;52.716;6.696;2023-01-20T16:20:44;2.70;99.90
65692;DHT22;52411;52.716;6.696;2023-01-20T16:23:11;2.70;99.90
65692;DHT22;52411;52.716;6.696;2023-01-20T16:25:37;2.70;99.90
65692;DHT22;52411;52.716;6.696;2023-01-20T16:28:17;2.70;99.90
65692;DHT22;52411;52.716;6.696;2023-01-20T16:30:46;2.70;99.90
65692;DHT22;52411;52.716;6.696;2023-01-20T16:33:29;2.70;99.90
65692;DHT22;52411;52.716;6.696;2023-01-20T16:35:55;2.70;99.90
65692;DHT22;52411;52.716;6.696;2023-01-20T16:38:23;2.70;99.90
65692;DHT22;52411;52.716;6.696;2023-01-20T16:40:56;2.80;99.90
65692;DHT22;52411;52.716;6.696;2023-01-20T16:43:23;2.80;99.90
65692;DHT22;52411;52.716;6.696;2023-01-20T16:45:50;2.80;99.90
65692;DHT22;52411;52.716;6.696;2023-01-20T16:48:23;2.80;99.90
65692;DHT22;52411;52.716;6.696;2023-01-20T16:50:50;2.80;99.90
65692;DHT22;52411;52.716;6.696;2023-01-20T16:53:17;2.80;99.90
65692;DHT22;52411;52.716;6.696;2023-01-20T16:55:47;2.80;99.90
65692;DHT22;52411;52.716;6.696;2023-01-20T16:58:15;2.80;99.90
65692;DHT22;52411;52.716;6.696;2023-01-20T17:00:41;2.80;99.90
65692;DHT22;52411;52.716;6.696;2023-01-20T17:03:07;2.80;99.90
65692;DHT22;52411;52.716;6.696;2023-01-20T17:05:33;2.80;99.90
65692;DHT22;52411;52.716;6.696;2023-01-20T17:07:59;2.70;99.90
65692;DHT22;52411;52.716;6.696;2023-01-20T17:10:27;2.70;99.90
65692;DHT22;52411;52.716;6.696;2023-01-20T17:12:54;2.70;99.90
65692;DHT22;52411;52.716;6.696;2023-01-20T17:15:20;2.70;99.90
65692;DHT22;52411;52.716;6.696;2023-01-20T17:17:51;2.70;99.90
65692;DHT22;52411;52.716;6.696;2023-01-20T17:20:19;2.70;99.90
65692;DHT22;52411;52.716;6.696;2023-01-20T17:22:45;2.70;99.90
65692;DHT22;52411;52.716;6.696;2023-01-20T17:25:12;2.70;99.90
65692;DHT22;52411;52.716;6.696;2023-01-20T17:27:38;2.70;99.90
65692;DHT22;52411;52.716;6.696;2023-01-20T17:30:06;2.70;99.90
65692;DHT22;52411;52.716;6.696;2023-01-20T17:32:34;2.70;99.90
65692;DHT22;52411;52.716;6.696;2023-01-20T17:35:00;2.70;99.90
65692;DHT22;52411;52.716;6.696;2023-01-20T17:37:26;2.70;99.90
65692;DHT22;52411;52.716;6.696;2023-01-20T17:39:51;2.70;99.90
65692;DHT22;52411;52.716;6.696;2023-01-20T17:42:17;2.70;99.90
65692;DHT22;52411;52.716;6.696;2023-01-20T17:44:43;2.60;99.90
65692;DHT22;52411;52.716;6.696;2023-01-20T17:47:09;2.60;99.90
65692;DHT22;52411;52.716;6.696;2023-01-20T17:49:35;2.60;99.90
65692;DHT22;52411;52.716;6.696;2023-01-20T17:52:01;2.60;99.90
65692;DHT22;52411;52.716;6.696;2023-01-20T17:54:26;2.50;99.90
65692;DHT22;52411;52.716;6.696;2023-01-20T17:56:52;2.60;99.90
65692;DHT22;52411;52.716;6.696;2023-01-20T17:59:18;2.50;99.90
65692;DHT22;52411;52.716;6.696;2023-01-20T18:01:43;2.50;99.90
65692;DHT22;52411;52.716;6.696;2023-01-20T18:04:09;2.40;99.90